createdAt,value
2018-08-11T00:00:16.863Z,74.5
2018-08-11T00:01:16.927Z,74.5
2018-08-11T00:02:17.197Z,74.7
2018-08-11T00:03:16.472Z,74.8
2018-08-11T00:04:16.749Z,74.8
2018-08-11T00:05:17.025Z,74.8
2018-08-11T00:06:16.313Z,74.9
2018-08-11T00:07:16.584Z,75.0
2018-08-11T00:08:16.859Z,75.3
2018-08-11T00:09:17.135Z,75.2
2018-08-11T00:10:16.420Z,75.2
2018-08-11T00:11:16.452Z,75.3
2018-08-11T00:12:16.730Z,75.3
2018-08-11T00:13:17.000Z,75.3
2018-08-11T00:14:16.265Z,75.5
2018-08-11T00:15:16.535Z,75.6
2018-08-11T00:16:16.800Z,75.8
2018-08-11T00:17:17.072Z,75.7
2018-08-11T00:18:16.338Z,75.9
2018-08-11T00:19:16.615Z,75.8
2018-08-11T00:20:16.891Z,76.1
2018-08-11T00:21:16.945Z,76.1
2018-08-11T00:22:17.205Z,76.2
2018-08-11T00:23:16.479Z,76.4
2018-08-11T00:24:16.755Z,76.3
2018-08-11T00:25:17.028Z,76.4
2018-08-11T00:26:16.299Z,76.2
2018-08-11T00:27:16.573Z,76.5
2018-08-11T00:28:16.835Z,76.7
2018-08-11T00:29:17.115Z,76.7
2018-08-11T00:30:16.407Z,76.7
2018-08-11T00:31:16.446Z,76.8
2018-08-11T00:32:16.707Z,76.9
2018-08-11T00:33:16.969Z,76.7
2018-08-11T00:34:17.234Z,76.8
2018-08-11T00:35:16.516Z,77.2
2018-08-11T00:36:16.843Z,77.3
2018-08-11T00:37:17.131Z,77.2
2018-08-11T00:38:16.398Z,77.5
2018-08-11T00:39:16.676Z,77.8
2018-08-11T00:40:16.951Z,77.8
2018-08-11T00:41:17.018Z,77.9
2018-08-11T00:42:16.286Z,77.9
2018-08-11T00:43:16.572Z,77.9
2018-08-11T00:44:16.844Z,77.8
2018-08-11T00:45:17.119Z,77.8
2018-08-11T00:46:16.384Z,78.1
2018-08-11T00:47:16.647Z,78.3
2018-08-11T00:48:17.054Z,78.4
2018-08-11T00:49:16.368Z,78.5
2018-08-11T00:50:16.655Z,78.3
2018-08-11T00:51:16.711Z,78.2
2018-08-11T00:52:16.990Z,78.4
2018-08-11T00:53:17.256Z,78.7
2018-08-11T00:54:16.530Z,78.8
2018-08-11T00:55:16.809Z,78.8
2018-08-11T00:56:17.071Z,79.0
2018-08-11T00:57:16.332Z,79.1
2018-08-11T00:58:16.609Z,79.1
2018-08-11T00:59:16.875Z,79.1
2018-08-11T01:00:17.152Z,79.3
2018-08-11T01:01:17.208Z,78.7
2018-08-11T01:02:16.575Z,79.0
2018-08-11T01:03:16.854Z,78.9
2018-08-11T01:04:17.392Z,79.0
2018-08-11T01:05:16.673Z,79.2
2018-08-11T01:06:16.941Z,79.2
2018-08-11T01:07:17.205Z,79.3
2018-08-11T01:08:16.480Z,79.5
2018-08-11T01:09:16.751Z,79.2
2018-08-11T01:10:17.035Z,79.3
2018-08-11T01:11:17.097Z,79.3
2018-08-11T01:12:16.362Z,79.2
2018-08-11T01:13:16.627Z,79.2
2018-08-11T01:14:16.897Z,79.3
2018-08-11T01:15:17.169Z,79.3
2018-08-11T01:16:16.445Z,79.3
2018-08-11T01:17:16.703Z,79.4
2018-08-11T01:18:16.967Z,79.4
2018-08-11T01:19:17.583Z,79.6
2018-08-11T01:20:16.863Z,79.4
2018-08-11T01:21:16.920Z,79.3
2018-08-11T01:22:17.181Z,79.3
2018-08-11T01:23:16.444Z,79.6
2018-08-11T01:24:16.711Z,79.7
2018-08-11T01:25:16.997Z,79.9
2018-08-11T01:26:16.256Z,79.8
2018-08-11T01:27:16.524Z,79.8
2018-08-11T01:28:16.804Z,79.8
2018-08-11T01:29:17.076Z,79.8
2018-08-11T01:30:16.349Z,79.8
2018-08-11T01:31:16.414Z,79.5
2018-08-11T01:32:16.683Z,79.6
2018-08-11T01:33:16.949Z,79.8
2018-08-11T01:34:17.220Z,79.9
2018-08-11T01:35:16.497Z,79.8
2018-08-11T01:36:16.776Z,80.2
2018-08-11T01:37:17.043Z,79.8
2018-08-11T01:38:16.302Z,79.6
2018-08-11T01:39:16.574Z,79.8
2018-08-11T01:40:16.852Z,79.8
2018-08-11T01:41:16.896Z,79.8
2018-08-11T01:42:17.160Z,79.7
2018-08-11T01:43:16.436Z,79.7
2018-08-11T01:44:16.854Z,79.8
2018-08-11T01:45:17.164Z,79.8
2018-08-11T01:46:16.437Z,79.8
2018-08-11T01:47:16.696Z,79.9
2018-08-11T01:48:16.960Z,79.8
2018-08-11T01:49:17.235Z,79.8
2018-08-11T01:50:16.516Z,80.0
2018-08-11T01:51:16.578Z,80.0
2018-08-11T01:52:16.848Z,79.9
2018-08-11T01:53:17.116Z,80.4
2018-08-11T01:54:16.385Z,80.5
2018-08-11T01:55:16.659Z,80.5
2018-08-11T01:56:16.942Z,80.5
2018-08-11T01:57:17.212Z,80.5
2018-08-11T01:58:16.474Z,80.5
2018-08-11T01:59:16.735Z,80.4
2018-08-11T02:00:17.026Z,80.4
2018-08-11T02:01:17.061Z,80.6
2018-08-11T02:02:16.630Z,80.7
2018-08-11T02:03:16.897Z,80.8
2018-08-11T02:04:17.161Z,80.8
2018-08-11T02:05:16.431Z,80.3
2018-08-11T02:06:16.692Z,80.2
2018-08-11T02:07:16.950Z,80.2
2018-08-11T02:08:17.215Z,80.6
2018-08-11T02:09:16.484Z,80.7
2018-08-11T02:10:16.767Z,80.6
2018-08-11T02:11:16.925Z,80.7
2018-08-11T02:12:16.292Z,81.6
2018-08-11T02:13:16.567Z,81.7
2018-08-11T02:14:16.832Z,81.4
2018-08-11T02:15:17.121Z,81.5
2018-08-11T02:16:16.396Z,81.6
2018-08-11T02:17:16.673Z,81.7
2018-08-11T02:18:16.944Z,81.6
2018-08-11T02:19:17.207Z,81.8
2018-08-11T02:20:16.481Z,82.0
2018-08-11T02:21:16.518Z,82.2
2018-08-11T02:22:16.788Z,82.2
2018-08-11T02:23:17.053Z,82.0
2018-08-11T02:24:16.331Z,82.0
2018-08-11T02:25:16.613Z,82.2
2018-08-11T02:26:16.881Z,82.3
2018-08-11T02:27:17.167Z,83.0
2018-08-11T02:28:16.441Z,83.2
2018-08-11T02:29:16.721Z,83.3
2018-08-11T02:30:17.057Z,83.5
2018-08-11T02:31:17.088Z,83.8
2018-08-11T02:32:16.373Z,83.9
2018-08-11T02:33:16.644Z,84.0
2018-08-11T02:34:17.028Z,84.0
2018-08-11T02:35:16.330Z,83.9
2018-08-11T02:36:16.605Z,84.0
2018-08-11T02:37:16.882Z,83.7
2018-08-11T02:38:17.163Z,83.8
2018-08-11T02:39:16.428Z,83.8
2018-08-11T02:40:16.715Z,83.8
2018-08-11T02:41:16.738Z,84.0
2018-08-11T02:42:17.013Z,84.1
2018-08-11T02:43:16.274Z,84.2
2018-08-11T02:44:16.553Z,84.2
2018-08-11T02:45:16.829Z,84.0
2018-08-11T02:46:17.129Z,84.2
2018-08-11T02:47:16.407Z,84.1
2018-08-11T02:48:16.681Z,84.0
2018-08-11T02:49:16.968Z,84.2
2018-08-11T02:50:17.241Z,84.2
2018-08-11T02:51:16.310Z,84.3
2018-08-11T02:52:16.575Z,84.4
2018-08-11T02:53:16.844Z,84.3
2018-08-11T02:54:17.135Z,84.3
2018-08-11T02:55:16.425Z,84.3
2018-08-11T02:56:16.699Z,84.4
2018-08-11T02:57:16.974Z,84.5
2018-08-11T02:58:17.238Z,84.2
2018-08-11T02:59:16.509Z,84.2
2018-08-11T03:00:16.780Z,84.2
2018-08-11T03:01:16.817Z,84.4
2018-08-11T03:02:17.337Z,84.5
2018-08-11T03:03:16.620Z,84.5
2018-08-11T03:04:16.891Z,84.4
2018-08-11T03:05:17.194Z,84.4
2018-08-11T03:06:16.469Z,84.3
2018-08-11T03:07:16.745Z,84.4
2018-08-11T03:08:17.330Z,84.5
2018-08-11T03:09:16.606Z,84.6
2018-08-11T03:10:16.886Z,84.7
2018-08-11T03:11:16.932Z,84.8
2018-08-11T03:12:17.200Z,85.0
2018-08-11T03:13:16.469Z,85.0
2018-08-11T03:14:16.745Z,84.7
2018-08-11T03:15:17.027Z,84.8
2018-08-11T03:16:16.340Z,85.0
2018-08-11T03:17:16.608Z,85.2
2018-08-11T03:18:16.879Z,85.0
2018-08-11T03:19:17.150Z,85.0
2018-08-11T03:20:16.447Z,84.9
2018-08-11T03:21:16.486Z,84.8
2018-08-11T03:22:16.773Z,85.0
2018-08-11T03:23:17.047Z,85.2
2018-08-11T03:24:16.324Z,85.3
2018-08-11T03:25:16.600Z,85.2
2018-08-11T03:26:16.889Z,85.4
2018-08-11T03:27:17.156Z,85.5
2018-08-11T03:28:16.434Z,85.2
2018-08-11T03:29:16.993Z,85.3
2018-08-11T03:30:16.282Z,85.4
2018-08-11T03:31:16.346Z,85.5
2018-08-11T03:32:16.618Z,85.4
2018-08-11T03:33:16.891Z,85.5
2018-08-11T03:34:17.161Z,85.1
2018-08-11T03:35:16.454Z,85.5
2018-08-11T03:36:16.730Z,85.3
2018-08-11T03:37:16.990Z,85.2
2018-08-11T03:38:16.258Z,85.2
2018-08-11T03:39:16.523Z,85.2
2018-08-11T03:40:16.793Z,85.5
2018-08-11T03:41:16.834Z,85.4
2018-08-11T03:42:17.104Z,85.7
2018-08-11T03:43:16.371Z,85.7
2018-08-11T03:44:16.654Z,85.7
2018-08-11T03:45:16.926Z,85.9
2018-08-11T03:46:17.200Z,86.1
2018-08-11T03:47:16.467Z,86.2
2018-08-11T03:48:16.738Z,86.4
2018-08-11T03:49:17.007Z,86.0
2018-08-11T03:50:16.302Z,85.4
2018-08-11T03:51:16.331Z,85.7
2018-08-11T03:52:16.617Z,86.4
2018-08-11T03:53:16.888Z,86.4
2018-08-11T03:54:17.170Z,86.3
2018-08-11T03:55:16.434Z,86.2
2018-08-11T03:56:16.700Z,86.3
2018-08-11T03:57:16.974Z,86.1
2018-08-11T03:58:17.251Z,86.0
2018-08-11T03:59:16.522Z,86.0
2018-08-11T04:00:16.803Z,86.0
2018-08-11T04:01:16.843Z,86.0
2018-08-11T04:02:17.125Z,86.2
2018-08-11T04:03:16.398Z,86.3
2018-08-11T04:04:17.045Z,86.0
2018-08-11T04:05:16.326Z,86.0
2018-08-11T04:06:16.597Z,85.8
2018-08-11T04:07:16.869Z,85.8
2018-08-11T04:08:17.130Z,85.9
2018-08-11T04:09:16.390Z,86.0
2018-08-11T04:10:16.668Z,86.0
2018-08-11T04:11:16.708Z,85.6
2018-08-11T04:12:16.971Z,85.6
2018-08-11T04:13:17.235Z,85.7
2018-08-11T04:14:16.503Z,85.6
2018-08-11T04:15:16.914Z,85.7
2018-08-11T04:16:17.194Z,85.8
2018-08-11T04:17:16.457Z,85.9
2018-08-11T04:18:16.732Z,85.8
2018-08-11T04:19:17.004Z,85.8
2018-08-11T04:20:16.276Z,85.7
2018-08-11T04:21:16.317Z,85.6
2018-08-11T04:22:16.581Z,85.5
2018-08-11T04:23:16.844Z,85.5
2018-08-11T04:24:17.119Z,85.5
2018-08-11T04:25:16.404Z,85.4
2018-08-11T04:26:16.693Z,85.3
2018-08-11T04:27:16.958Z,85.3
2018-08-11T04:28:17.223Z,85.2
2018-08-11T04:29:16.505Z,85.2
2018-08-11T04:30:16.785Z,85.0
2018-08-11T04:31:16.851Z,84.8
2018-08-11T04:32:17.123Z,84.8
2018-08-11T04:33:16.399Z,84.8
2018-08-11T04:34:16.675Z,84.8
2018-08-11T04:35:16.952Z,84.7
2018-08-11T04:36:17.218Z,84.7
2018-08-11T04:37:16.487Z,84.3
2018-08-11T04:38:16.756Z,84.1
2018-08-11T04:39:17.024Z,84.1
2018-08-11T04:40:16.297Z,84.2
2018-08-11T04:41:16.349Z,84.3
2018-08-11T04:42:16.616Z,84.5
2018-08-11T04:43:16.882Z,84.2
2018-08-11T04:44:17.161Z,83.8
2018-08-11T04:45:16.437Z,83.8
2018-08-11T04:46:16.711Z,83.5
2018-08-11T04:47:16.981Z,83.5
2018-08-11T04:48:17.248Z,83.3
2018-08-11T04:49:16.521Z,83.5
2018-08-11T04:50:17.196Z,83.2
2018-08-11T04:51:16.859Z,83.4
2018-08-11T04:52:17.118Z,83.6
2018-08-11T04:53:16.392Z,83.6
2018-08-11T04:54:16.667Z,83.5
2018-08-11T04:55:16.944Z,83.3
2018-08-11T04:56:17.229Z,83.2
2018-08-11T04:57:16.512Z,83.1
2018-08-11T04:58:16.793Z,83.2
2018-08-11T04:59:17.071Z,83.1
2018-08-11T05:00:16.340Z,83.2
2018-08-11T05:01:16.384Z,83.2
2018-08-11T05:02:16.661Z,83.2
2018-08-11T05:03:16.929Z,83.3
2018-08-11T05:04:17.201Z,83.2
2018-08-11T05:05:16.482Z,83.0
2018-08-11T05:06:16.758Z,82.8
2018-08-11T05:07:17.019Z,82.8
2018-08-11T05:08:16.279Z,82.7
2018-08-11T05:09:16.551Z,82.7
2018-08-11T05:10:16.838Z,82.7
2018-08-11T05:11:16.879Z,82.5
2018-08-11T05:12:17.155Z,82.2
2018-08-11T05:13:16.420Z,82.0
2018-08-11T05:14:16.683Z,81.7
2018-08-11T05:15:16.951Z,81.6
2018-08-11T05:16:17.223Z,81.5
2018-08-11T05:17:16.490Z,81.3
2018-08-11T05:18:16.752Z,81.0
2018-08-11T05:19:17.024Z,80.9
2018-08-11T05:20:16.294Z,81.0
2018-08-11T05:21:16.346Z,80.8
2018-08-11T05:22:16.618Z,80.7
2018-08-11T05:23:16.889Z,80.8
2018-08-11T05:24:17.153Z,80.6
2018-08-11T05:25:16.429Z,80.5
2018-08-11T05:26:16.830Z,80.3
2018-08-11T05:27:17.149Z,80.3
2018-08-11T05:28:16.416Z,80.5
2018-08-11T05:29:16.698Z,80.3
2018-08-11T05:30:16.985Z,80.2
2018-08-11T05:31:17.027Z,80.5
2018-08-11T05:32:16.298Z,80.2
2018-08-11T05:33:16.738Z,80.2
2018-08-11T05:34:17.096Z,79.8
2018-08-11T05:35:16.389Z,79.9
2018-08-11T05:36:16.682Z,79.7
2018-08-11T05:37:16.949Z,79.5
2018-08-11T05:38:17.213Z,79.4
2018-08-11T05:39:16.477Z,78.9
2018-08-11T05:40:16.750Z,78.4
2018-08-11T05:41:16.785Z,77.8
2018-08-11T05:42:17.069Z,77.8
2018-08-11T05:43:16.324Z,77.5
2018-08-11T05:44:16.594Z,77.6
2018-08-11T05:45:16.876Z,77.4
2018-08-11T05:46:17.416Z,77.3
2018-08-11T05:47:16.692Z,77.3
2018-08-11T05:48:16.959Z,77.0
2018-08-11T05:49:17.229Z,76.9
2018-08-11T05:50:16.508Z,76.5
2018-08-11T05:51:16.564Z,76.8
2018-08-11T05:52:16.855Z,77.0
2018-08-11T05:53:17.121Z,76.7
2018-08-11T05:54:16.384Z,76.1
2018-08-11T05:55:16.856Z,75.8
2018-08-11T05:56:17.150Z,75.9
2018-08-11T05:57:16.418Z,75.9
2018-08-11T05:58:16.689Z,76.0
2018-08-11T05:59:16.963Z,75.8
2018-08-11T06:00:17.249Z,75.5
2018-08-11T06:01:16.302Z,75.5
2018-08-11T06:02:16.570Z,76.4
2018-08-11T06:03:16.831Z,76.3
2018-08-11T06:04:17.113Z,76.2
2018-08-11T06:05:16.401Z,75.1
2018-08-11T06:06:16.669Z,75.2
2018-08-11T06:07:16.936Z,74.9
2018-08-11T06:08:17.200Z,74.3
2018-08-11T06:09:16.463Z,74.2
2018-08-11T06:10:16.752Z,73.9
2018-08-11T06:11:16.780Z,73.9
2018-08-11T06:12:17.044Z,73.8
2018-08-11T06:13:16.310Z,73.9
2018-08-11T06:14:16.574Z,73.8
2018-08-11T06:15:16.855Z,73.7
2018-08-11T06:16:17.133Z,73.3
2018-08-11T06:17:16.411Z,73.3
2018-08-11T06:18:16.672Z,73.4
2018-08-11T06:19:16.945Z,74.3
2018-08-11T06:20:17.219Z,73.9
2018-08-11T06:21:16.525Z,73.7
2018-08-11T06:22:16.853Z,72.7
2018-08-11T06:23:17.115Z,72.4
2018-08-11T06:24:16.380Z,71.7
2018-08-11T06:25:16.662Z,71.7
2018-08-11T06:26:16.937Z,70.9
2018-08-11T06:27:17.203Z,70.5
2018-08-11T06:28:16.476Z,70.0
2018-08-11T06:29:16.751Z,69.8
2018-08-11T06:30:17.034Z,69.6
2018-08-11T06:31:17.232Z,67.2
2018-08-11T06:32:16.735Z,66.9
2018-08-11T06:33:17.019Z,66.2
2018-08-11T06:34:16.291Z,65.1
2018-08-11T06:35:16.610Z,71.3
2018-08-11T06:36:16.875Z,64.4
2018-08-11T06:37:17.173Z,63.8
2018-08-11T06:38:16.442Z,64.6
2018-08-11T06:39:16.704Z,64.4
2018-08-11T06:40:16.980Z,64.2
2018-08-11T06:41:17.043Z,63.9
2018-08-11T06:42:16.311Z,62.9
2018-08-11T06:43:16.590Z,63.1
2018-08-11T06:44:16.865Z,62.6
2018-08-11T06:45:17.136Z,61.8
2018-08-11T06:46:16.402Z,61.3
2018-08-11T06:47:16.680Z,60.8
2018-08-11T06:48:16.947Z,61.2
2018-08-11T06:49:17.224Z,60.5
2018-08-11T06:50:16.495Z,59.9
2018-08-11T06:51:16.543Z,59.8
2018-08-11T06:52:16.815Z,59.0
2018-08-11T06:53:17.086Z,58.4
2018-08-11T06:54:16.354Z,57.1
2018-08-11T06:55:16.626Z,56.7
2018-08-11T06:56:16.897Z,56.8
2018-08-11T06:57:17.176Z,57.5
2018-08-11T06:58:16.443Z,57.9
2018-08-11T06:59:16.717Z,56.4
2018-08-11T07:00:17.009Z,56.2
2018-08-11T07:01:17.044Z,57.1
2018-08-11T07:02:16.329Z,56.4
2018-08-11T07:03:16.608Z,55.8
2018-08-11T07:04:16.870Z,54.0
2018-08-11T07:05:17.128Z,53.7
2018-08-11T07:06:16.391Z,52.5
2018-08-11T07:07:16.667Z,51.3
2018-08-11T07:08:16.941Z,51.0
2018-08-11T07:09:17.215Z,50.8
2018-08-11T07:10:16.488Z,50.4
2018-08-11T07:11:16.535Z,50.6
2018-08-11T07:12:16.800Z,49.1
2018-08-11T07:13:17.079Z,49.0
2018-08-11T07:14:16.348Z,49.3
2018-08-11T07:15:16.744Z,48.1
2018-08-11T07:16:17.071Z,47.9
2018-08-11T07:17:16.343Z,45.9
2018-08-11T07:18:16.649Z,45.1
2018-08-11T07:19:16.949Z,44.7
2018-08-11T07:20:17.227Z,44.1
2018-08-11T07:21:16.369Z,43.3
2018-08-11T07:22:16.642Z,41.5
2018-08-11T07:23:16.912Z,41.8
2018-08-11T07:24:17.235Z,40.5
2018-08-11T07:25:16.521Z,39.4
2018-08-11T07:26:16.792Z,39.5
2018-08-11T07:27:17.068Z,39.2
2018-08-11T07:28:16.333Z,38.6
2018-08-11T07:29:16.805Z,38.2
2018-08-11T07:30:17.280Z,38.5
2018-08-11T07:31:17.137Z,37.5
2018-08-11T07:32:16.419Z,38.0
2018-08-11T07:33:16.725Z,37.6
2018-08-11T07:34:17.044Z,36.9
2018-08-11T07:35:16.363Z,36.1
2018-08-11T07:36:16.883Z,37.1
2018-08-11T07:37:17.169Z,35.6
2018-08-11T07:38:16.668Z,35.4
2018-08-11T07:39:17.555Z,35.4
2018-08-11T07:40:17.013Z,36.8
2018-08-11T07:41:16.945Z,36.5
2018-08-11T07:42:17.223Z,36.8
2018-08-11T07:43:16.541Z,36.3
2018-08-11T07:44:16.816Z,36.0
2018-08-11T07:45:17.133Z,36.4
2018-08-11T07:46:16.391Z,35.6
2018-08-11T07:47:16.664Z,36.1
2018-08-11T07:48:16.928Z,36.1
2018-08-11T07:49:17.195Z,36.1
2018-08-11T07:50:16.648Z,35.8
2018-08-11T07:51:16.519Z,35.7
2018-08-11T07:52:16.785Z,35.0
2018-08-11T07:53:17.045Z,35.0
2018-08-11T07:54:16.318Z,35.8
2018-08-11T07:55:16.602Z,36.2
2018-08-11T07:56:16.869Z,36.0
2018-08-11T07:57:17.154Z,36.2
2018-08-11T07:58:16.419Z,35.6
2018-08-11T07:59:16.687Z,35.5
2018-08-11T08:00:16.973Z,36.3
2018-08-11T08:01:17.081Z,37.1
2018-08-11T08:02:16.416Z,36.9
2018-08-11T08:03:16.687Z,36.8
2018-08-11T08:04:16.961Z,37.2
2018-08-11T08:05:17.226Z,37.8
2018-08-11T08:06:16.490Z,37.5
2018-08-11T08:07:16.771Z,37.1
2018-08-11T08:08:17.036Z,37.2
2018-08-11T08:09:16.307Z,37.4
2018-08-11T08:10:16.591Z,37.9
2018-08-11T08:11:16.632Z,39.0
2018-08-11T08:12:16.894Z,38.8
2018-08-11T08:13:17.166Z,38.9
2018-08-11T08:14:16.438Z,38.9
2018-08-11T08:15:16.708Z,39.4
2018-08-11T08:16:16.972Z,39.6
2018-08-11T08:17:17.260Z,39.8
2018-08-11T08:18:16.534Z,39.4
2018-08-11T08:19:16.812Z,38.7
2018-08-11T08:20:17.109Z,38.1
2018-08-11T08:21:17.119Z,36.5
2018-08-11T08:22:16.399Z,36.9
2018-08-11T08:23:16.678Z,37.5
2018-08-11T08:24:16.939Z,37.8
2018-08-11T08:25:17.221Z,38.0
2018-08-11T08:26:16.998Z,37.5
2018-08-11T08:27:16.355Z,36.5
2018-08-11T08:28:16.619Z,36.9
2018-08-11T08:29:16.886Z,37.0
2018-08-11T08:30:17.188Z,36.4
2018-08-11T08:31:17.215Z,35.6
2018-08-11T08:32:16.476Z,36.1
2018-08-11T08:33:16.750Z,35.1
2018-08-11T08:34:17.012Z,34.8
2018-08-11T08:35:16.292Z,34.5
2018-08-11T08:36:16.559Z,35.5
2018-08-11T08:37:16.829Z,35.1
2018-08-11T08:38:17.098Z,34.4
2018-08-11T08:39:16.366Z,33.4
2018-08-11T08:40:16.649Z,33.9
2018-08-11T08:41:16.700Z,34.2
2018-08-11T08:42:16.977Z,34.0
2018-08-11T08:43:17.247Z,33.8
2018-08-11T08:44:16.516Z,33.1
2018-08-11T08:45:16.781Z,33.3
2018-08-11T08:46:17.040Z,34.0
2018-08-11T08:47:16.310Z,33.7
2018-08-11T08:48:16.573Z,33.6
2018-08-11T08:49:16.853Z,33.7
2018-08-11T08:50:17.130Z,33.4
2018-08-11T08:51:17.201Z,33.6
2018-08-11T08:52:16.468Z,34.5
2018-08-11T08:53:16.817Z,34.7
2018-08-11T08:54:17.158Z,34.6
2018-08-11T08:55:16.422Z,34.4
2018-08-11T08:56:16.686Z,35.2
2018-08-11T08:57:16.954Z,35.4
2018-08-11T08:58:17.213Z,36.3
2018-08-11T08:59:16.493Z,35.9
2018-08-11T09:00:16.784Z,36.4
2018-08-11T09:01:16.807Z,36.0
2018-08-11T09:02:17.073Z,36.4
2018-08-11T09:03:16.339Z,37.4
2018-08-11T09:04:16.626Z,37.5
2018-08-11T09:05:16.906Z,37.1
2018-08-11T09:06:17.176Z,37.0
2018-08-11T09:07:16.442Z,37.3
2018-08-11T09:08:16.712Z,36.5
2018-08-11T09:09:16.979Z,35.6
2018-08-11T09:10:17.251Z,35.3
2018-08-11T09:11:16.298Z,34.4
2018-08-11T09:12:16.573Z,34.2
2018-08-11T09:13:16.834Z,34.1
2018-08-11T09:14:17.112Z,32.9
2018-08-11T09:15:16.391Z,32.7
2018-08-11T09:16:16.662Z,33.0
2018-08-11T09:17:16.934Z,32.1
2018-08-11T09:18:17.207Z,31.9
2018-08-11T09:19:16.478Z,31.8
2018-08-11T09:20:16.756Z,33.2
2018-08-11T09:21:16.807Z,33.0
2018-08-11T09:22:17.081Z,32.9
2018-08-11T09:23:16.349Z,32.0
2018-08-11T09:24:16.619Z,31.2
2018-08-11T09:25:16.913Z,30.4
2018-08-11T09:26:17.177Z,30.9
2018-08-11T09:27:16.447Z,29.9
2018-08-11T09:28:16.705Z,30.1
2018-08-11T09:29:17.170Z,29.7
2018-08-11T09:30:16.519Z,30.4
2018-08-11T09:31:16.582Z,31.0
2018-08-11T09:32:16.863Z,30.5
2018-08-11T09:33:17.129Z,30.5
2018-08-11T09:34:16.399Z,30.1
2018-08-11T09:35:16.675Z,31.4
2018-08-11T09:36:16.942Z,30.9
2018-08-11T09:37:17.212Z,30.4
2018-08-11T09:38:16.592Z,30.6
2018-08-11T09:39:16.867Z,30.9
2018-08-11T09:40:17.146Z,31.1
2018-08-11T09:41:17.185Z,30.5
2018-08-11T09:42:16.455Z,31.1
2018-08-11T09:43:16.720Z,31.8
2018-08-11T09:44:16.991Z,31.5
2018-08-11T09:45:16.267Z,31.1
2018-08-11T09:46:16.536Z,31.4
2018-08-11T09:47:16.795Z,31.6
2018-08-11T09:48:17.060Z,31.4
2018-08-11T09:49:16.328Z,31.8
2018-08-11T09:50:16.597Z,32.3
2018-08-11T09:51:16.635Z,33.0
2018-08-11T09:52:17.047Z,32.9
2018-08-11T09:53:16.373Z,32.3
2018-08-11T09:54:16.647Z,32.2
2018-08-11T09:55:16.914Z,32.5
2018-08-11T09:56:17.179Z,32.8
2018-08-11T09:57:16.440Z,31.9
2018-08-11T09:58:16.704Z,32.0
2018-08-11T09:59:16.963Z,31.9
2018-08-11T10:00:17.365Z,31.7
2018-08-11T10:01:16.291Z,31.3
2018-08-11T10:02:16.563Z,31.9
2018-08-11T10:03:16.822Z,31.5
2018-08-11T10:04:17.096Z,30.9
2018-08-11T10:05:16.374Z,31.6
2018-08-11T10:06:16.647Z,32.5
2018-08-11T10:07:16.913Z,33.0
2018-08-11T10:08:17.174Z,34.1
2018-08-11T10:09:16.443Z,34.5
2018-08-11T10:10:16.714Z,33.8
2018-08-11T10:11:16.770Z,33.5
2018-08-11T10:12:17.043Z,33.4
2018-08-11T10:13:16.318Z,32.3
2018-08-11T10:14:16.584Z,32.7
2018-08-11T10:15:16.860Z,32.5
2018-08-11T10:16:17.405Z,32.2
2018-08-11T10:17:16.668Z,32.8
2018-08-11T10:18:16.943Z,33.0
2018-08-11T10:19:17.211Z,32.4
2018-08-11T10:20:16.479Z,32.5
2018-08-11T10:21:16.534Z,33.0
2018-08-11T10:22:16.806Z,33.6
2018-08-11T10:23:17.070Z,33.8
2018-08-11T10:24:16.339Z,34.5
2018-08-11T10:25:16.614Z,34.4
2018-08-11T10:26:16.881Z,33.8
2018-08-11T10:27:17.151Z,33.9
2018-08-11T10:28:16.413Z,34.7
2018-08-11T10:29:16.676Z,35.5
2018-08-11T10:30:16.948Z,35.6
2018-08-11T10:31:16.997Z,34.7
2018-08-11T10:32:16.277Z,34.3
2018-08-11T10:33:16.541Z,34.6
2018-08-11T10:34:16.808Z,35.4
2018-08-11T10:35:17.104Z,35.8
2018-08-11T10:36:16.369Z,35.3
2018-08-11T10:37:16.634Z,35.6
2018-08-11T10:38:16.896Z,36.3
2018-08-11T10:39:17.167Z,36.6
2018-08-11T10:40:16.764Z,36.5
2018-08-11T10:41:16.495Z,36.2
2018-08-11T10:42:16.752Z,36.5
2018-08-11T10:43:17.021Z,36.8
2018-08-11T10:44:16.295Z,37.0
2018-08-11T10:45:16.583Z,37.0
2018-08-11T10:46:16.843Z,35.8
2018-08-11T10:47:17.123Z,35.5
2018-08-11T10:48:16.392Z,35.7
2018-08-11T10:49:16.660Z,35.2
2018-08-11T10:50:16.934Z,34.3
2018-08-11T10:51:17.018Z,34.5
2018-08-11T10:52:16.279Z,34.8
2018-08-11T10:53:16.551Z,34.6
2018-08-11T10:54:16.812Z,34.6
2018-08-11T10:55:17.070Z,34.2
2018-08-11T10:56:16.340Z,34.4
2018-08-11T10:57:16.613Z,34.4
2018-08-11T10:58:16.880Z,34.0
2018-08-11T10:59:17.155Z,34.5
2018-08-11T11:00:16.449Z,34.4
2018-08-11T11:01:16.636Z,34.0
2018-08-11T11:02:16.966Z,33.3
2018-08-11T11:03:17.243Z,33.6
2018-08-11T11:04:16.511Z,33.5
2018-08-11T11:05:16.784Z,34.2
2018-08-11T11:06:17.049Z,35.0
2018-08-11T11:07:16.314Z,35.0
2018-08-11T11:08:16.684Z,35.0
2018-08-11T11:09:16.959Z,36.1
2018-08-11T11:10:17.241Z,36.1
2018-08-11T11:11:16.277Z,36.4
2018-08-11T11:12:16.552Z,36.5
2018-08-11T11:13:16.816Z,36.1
2018-08-11T11:14:17.239Z,36.6
2018-08-11T11:15:16.591Z,37.0
2018-08-11T11:16:16.865Z,37.1
2018-08-11T11:17:17.143Z,37.1
2018-08-11T11:18:16.413Z,36.8
2018-08-11T11:19:16.682Z,36.0
2018-08-11T11:20:16.955Z,35.2
2018-08-11T11:21:16.999Z,34.9
2018-08-11T11:22:16.258Z,35.0
2018-08-11T11:23:16.528Z,34.3
2018-08-11T11:24:16.790Z,34.0
2018-08-11T11:25:17.080Z,33.1
2018-08-11T11:26:16.346Z,33.2
2018-08-11T11:27:16.624Z,34.3
2018-08-11T11:28:16.902Z,34.1
2018-08-11T11:29:17.165Z,34.2
2018-08-11T11:30:16.457Z,33.6
2018-08-11T11:31:16.488Z,33.7
2018-08-11T11:32:16.757Z,33.6
2018-08-11T11:33:17.031Z,33.3
2018-08-11T11:34:16.309Z,33.2
2018-08-11T11:35:16.581Z,33.1
2018-08-11T11:36:16.861Z,33.1
2018-08-11T11:37:17.535Z,32.8
2018-08-11T11:38:16.870Z,34.0
2018-08-11T11:39:17.150Z,34.8
2018-08-11T11:40:16.434Z,34.6
2018-08-11T11:41:16.491Z,34.5
2018-08-11T11:42:16.746Z,34.0
2018-08-11T11:43:17.114Z,33.5
2018-08-11T11:44:16.414Z,34.0
2018-08-11T11:45:16.709Z,33.7
2018-08-11T11:46:16.978Z,33.9
2018-08-11T11:47:17.244Z,34.0
2018-08-11T11:48:16.514Z,34.6
2018-08-11T11:49:16.802Z,35.4
2018-08-11T11:50:17.079Z,35.6
2018-08-11T11:51:17.139Z,36.0
2018-08-11T11:52:16.406Z,36.0
2018-08-11T11:53:16.672Z,36.4
2018-08-11T11:54:16.942Z,36.5
2018-08-11T11:55:17.212Z,36.4
2018-08-11T11:56:16.473Z,36.7
2018-08-11T11:57:16.737Z,36.8
2018-08-11T11:58:17.001Z,37.2
2018-08-11T11:59:16.271Z,37.5
2018-08-11T12:00:16.559Z,37.5
2018-08-11T12:01:16.610Z,37.8
2018-08-11T12:02:16.891Z,38.1
2018-08-11T12:03:17.165Z,38.2
2018-08-11T12:04:16.431Z,38.5
2018-08-11T12:05:16.704Z,38.3
2018-08-11T12:06:16.971Z,38.2
2018-08-11T12:07:17.251Z,38.4
2018-08-11T12:08:16.517Z,38.3
2018-08-11T12:09:16.782Z,38.2
2018-08-11T12:10:17.077Z,38.0
2018-08-11T12:11:17.116Z,37.6
2018-08-11T12:12:16.389Z,37.4
2018-08-11T12:13:16.657Z,37.6
2018-08-11T12:14:16.916Z,37.2
2018-08-11T12:15:17.198Z,36.8
2018-08-11T12:16:16.464Z,35.9
2018-08-11T12:17:16.736Z,36.0
2018-08-11T12:18:16.998Z,35.8
2018-08-11T12:19:16.340Z,35.7
2018-08-11T12:20:16.622Z,35.4
2018-08-11T12:21:16.680Z,35.4
2018-08-11T12:22:16.953Z,35.5
2018-08-11T12:23:17.208Z,35.5
2018-08-11T12:24:16.476Z,35.4
2018-08-11T12:25:16.738Z,36.1
2018-08-11T12:26:17.009Z,36.7
2018-08-11T12:27:16.278Z,36.9
2018-08-11T12:28:16.550Z,37.2
2018-08-11T12:29:16.824Z,37.2
2018-08-11T12:30:17.097Z,37.7
2018-08-11T12:31:17.333Z,37.8
2018-08-11T12:32:16.677Z,37.7
2018-08-11T12:33:16.951Z,37.8
2018-08-11T12:34:17.221Z,38.0
2018-08-11T12:35:16.492Z,37.9
2018-08-11T12:36:16.760Z,37.3
2018-08-11T12:37:17.028Z,37.0
2018-08-11T12:38:16.299Z,36.8
2018-08-11T12:39:16.576Z,36.3
2018-08-11T12:40:16.859Z,36.4
2018-08-11T12:41:16.912Z,36.5
2018-08-11T12:42:17.186Z,36.6
2018-08-11T12:43:16.445Z,36.9
2018-08-11T12:44:16.720Z,36.7
2018-08-11T12:45:16.998Z,36.6
2018-08-11T12:46:16.280Z,36.8
2018-08-11T12:47:16.551Z,36.5
2018-08-11T12:48:16.870Z,36.7
2018-08-11T12:49:17.131Z,36.8
2018-08-11T12:50:16.396Z,36.2
2018-08-11T12:51:16.445Z,35.8
2018-08-11T12:52:16.716Z,35.2
2018-08-11T12:53:16.986Z,35.3
2018-08-11T12:54:17.258Z,35.0
2018-08-11T12:55:16.529Z,34.9
2018-08-11T12:56:16.804Z,34.3
2018-08-11T12:57:17.071Z,34.4
2018-08-11T12:58:16.340Z,34.0
2018-08-11T12:59:16.625Z,33.8
2018-08-11T13:00:16.903Z,33.3
2018-08-11T13:01:16.954Z,33.3
2018-08-11T13:02:17.222Z,33.5
2018-08-11T13:03:16.490Z,33.8
2018-08-11T13:04:16.750Z,34.0
2018-08-11T13:05:17.020Z,34.1
2018-08-11T13:06:16.300Z,34.1
2018-08-11T13:07:17.074Z,34.0
2018-08-11T13:08:16.349Z,34.1
2018-08-11T13:09:16.620Z,34.4
2018-08-11T13:10:16.904Z,34.3
2018-08-11T13:11:16.952Z,34.3
2018-08-11T13:12:17.225Z,35.3
2018-08-11T13:13:16.491Z,34.6
2018-08-11T13:14:16.756Z,34.8
2018-08-11T13:15:17.033Z,35.0
2018-08-11T13:16:16.311Z,35.0
2018-08-11T13:17:16.580Z,35.0
2018-08-11T13:18:16.852Z,35.1